Nearby METAR Reports

 

ELLX - Luxembourg (aut), Luxembourg
Distance from station: NNE 33km
Updated: 26/01/2022 14:20
Mostly cloudy
Mostly cloudy
 Wind from NW
Wind: NW 6 km/h
Temperature: -1°C
Dew Point: -2°C
Humidity: 93%
Barometer: 1032 hPa
Clouds: Mostly cloudy
Visibility: 7 km
Cloud details: Mostly cloudy 183 m
2022/01/26 13:20 ELLX 261320Z 32003KT 240V050 7000 BKN006 M01/M02 Q1032 NOSIG
LFJL - Metz-Nancy-Lorra, France
Distance from station: SSE 46km
Updated: 26/01/2022 14:30
Mist, Overcast
Mist, Overcast
 Wind from WSW
Wind: WSW 9 km/h
Temperature: -1°C
Wind Chill: -4°C
Dew Point: -1°C
Humidity: 100%
Barometer: 1033 hPa
Summary: Mist
Clouds: Overcast
Visibility: 5 km
Cloud details: Overcast 91 m
2022/01/26 13:30 LFJL 261330Z AUTO 25005KT 5000 BR OVC003 M01/M01 Q1033 BECMG SCT005 BKN012
 
EDDR - Saarbruecken, Germany
Distance from station: E 78km
Updated: 26/01/2022 14:20
Mist, Overcast
Mist, Overcast
 Wind from W
Wind: W 13 km/h
Temperature: -1°C
Wind Chill: -6°C
Dew Point: -2°C
Humidity: 93%
Barometer: 1032 hPa
Summary: Mist
Clouds: Overcast
Visibility: 5 km
Cloud details: Overcast 122 m
2022/01/26 13:20 EDDR 261320Z 28007KT 250V310 4500 BR OVC004 M01/M02 Q1032 BECMG 5000 OVC005
LFSN - Nancy/Essey, France
Distance from station: S 78km
Updated: 26/01/2022 14:30
Overcast
Overcast
 Wind from WNW
Wind: WNW 6 km/h
Temperature: -2°C
Dew Point: -2°C
Humidity: 100%
Barometer: 1034 hPa
Clouds: Overcast
Visibility: 10 km
Cloud details: Overcast 183 m
2022/01/26 13:30 LFSN 261330Z AUTO 29003KT 230V340 9999 OVC006 M02/M02 Q1034